Flight Track Log - Related Links

Times and Time Zones

All times are in EDT time to prevent confusion due to time zone crossing. See the DAL268 flight status page for this flight to view local times or setup timezone preferences in your user account.

Time Position Orientation Groundspeed Altitude Reporting Facility
EDT Latitude Longitude Course Direction KTS km/h meters Rate Location/Type
Wed 14:42:51 37.6110 -122.3780 360° North 100 185  Level FlightAware ADS-B
Wed 14:43:11 37.6230 -122.3700 28° Northeast 175 323 1,909 Level FlightAware ADS-B
Wed 14:43:35 37.6390 -122.3580 31° Northeast 158 293 427 998 Climbing FlightAware ADS-B
Wed 14:43:44 37.6440 -122.3520 44° Northeast 160 296 549 610 Climbing FlightAware ADS-B
Wed 14:44:05 37.6550 -122.3350 51° Northeast 187 346 732 491 Climbing FlightAware ADS-B
Wed 14:44:25 37.6670 -122.3170 50° Northeast 211 391 884 572 Climbing FlightAware ADS-B
Wed 14:44:37 37.6750 -122.3060 47° Northeast 223 414 1,036 549 Climbing FlightAware ADS-B
Wed 14:44:55 37.6870 -122.2860 53° Northeast 250 463 1,158 691 Climbing FlightAware ADS-B
Wed 14:45:22 37.7080 -122.2550 49° Northeast 266 492 1,554 994 Climbing FlightAware ADS-B
Wed 14:45:41 37.7230 -122.2320 50° Northeast 264 489 1,920 1,032 Climbing FlightAware ADS-B
Wed 14:46:01 37.7390 -122.2080 50° Northeast 270 501 2,225 914 Climbing FlightAware ADS-B
Wed 14:46:23 37.7570 -122.1810 50° Northeast 275 509 2,560 914 Climbing FlightAware ADS-B
Wed 14:46:45 37.7740 -122.1550 50° Northeast 279 517 2,896 765 Climbing FlightAware ADS-B
Wed 14:47:18 37.8020 -122.1130 50° Northeast 296 549 3,261 522 Climbing FlightAware ADS-B
Wed 14:47:41 37.8280 -122.0840 41° Northeast 327 605 3,383 333 Climbing FlightAware ADS-B
Wed 14:48:13 37.8720 -122.0470 34° Northeast 361 668 3,566 323 Climbing FlightAware ADS-B
Wed 14:48:49 37.9240 -122.0000 35° Northeast 398 737 3,749 508 Climbing FlightAware ADS-B
Wed 14:49:25 37.9790 -121.9520 35° Northeast 406 752 4,176 737 Climbing FlightAware ADS-B
Wed 14:50:01 38.0350 -121.9040 34° Northeast 414 766 4,633 726 Climbing FlightAware ADS-B
Wed 14:50:33 38.0870 -121.8600 34° Northeast 422 782 4,999 679 Climbing FlightAware ADS-B
Wed 14:51:11 38.1500 -121.8060 34° Northeast 429 795 5,425 635 Climbing FlightAware ADS-B
Wed 14:51:45 38.2050 -121.7580 34° Northeast 436 808 5,761 601 Climbing FlightAware ADS-B
Wed 14:52:21 38.2670 -121.7050 34° Northeast 444 822 6,126 592 Climbing FlightAware ADS-B
Wed 14:52:53 38.3190 -121.6600 34° Northeast 449 832 6,431 575 Climbing FlightAware ADS-B
Wed 14:53:31 38.3850 -121.6020 35° Northeast 454 840 6,797 544 Climbing FlightAware ADS-B
Wed 14:54:07 38.4460 -121.5410 38° Northeast 464 859 7,102 470 Climbing FlightAware ADS-B
Wed 14:54:41 38.4930 -121.4700 50° Northeast 474 877 7,346 457 Climbing FlightAware ADS-B
Wed 14:55:15 38.5390 -121.3910 53° Northeast 480 888 7,620 457 Climbing FlightAware ADS-B
Wed 14:55:49 38.5840 -121.3120 54° Northeast 484 896 7,864 261 Climbing FlightAware ADS-B
Wed 14:56:25 38.6320 -121.2280 54° Northeast 489 906 7,925 56 Climbing FlightAware ADS-B
Wed 14:56:54 38.6707 -121.1610 53° Northeast 490 908 7,925  Level FlightAware ADS-B
Wed 14:57:33 38.7220 -121.0730 53° Northeast 486 900 7,925 146 Level FlightAware ADS-B
Wed 14:58:09 38.7700 -120.9890 54° Northeast 488 904 8,108 457 Climbing FlightAware ADS-B
Wed 14:58:45 38.8190 -120.9040 53° Northeast 482 893 8,473 567 Climbing FlightAware ADS-B
Wed 14:59:20 38.8630 -120.8270 54° Northeast 478 885 8,778 530 Climbing FlightAware ADS-B
Wed 14:59:54 38.9090 -120.7490 53° Northeast 476 882 9,083 515 Climbing FlightAware ADS-B
Wed 15:00:31 38.9570 -120.6660 53° Northeast 474 877 9,388 477 Climbing FlightAware ADS-B
Wed 15:01:03 38.9990 -120.5930 53° Northeast 472 874 9,632 443 Climbing FlightAware ADS-B
Wed 15:01:37 39.0440 -120.5160 53° Northeast 469 869 9,876 443 Climbing FlightAware ADS-B
Wed 15:02:09 39.0850 -120.4450 53° Northeast 467 864 10,119 429 Climbing FlightAware ADS-B
Wed 15:02:41 39.1250 -120.3740 54° Northeast 465 861 10,333 424 Climbing FlightAware ADS-B
Wed 15:03:18 39.1730 -120.2900 54° Northeast 461 855 10,607 426 Climbing FlightAware ADS-B
Wed 15:03:54 39.2190 -120.2100 53° Northeast 458 848 10,851 360 Climbing FlightAware ADS-B
Wed 15:04:24 39.2550 -120.1460 54° Northeast 455 843 11,003 296 Climbing FlightAware ADS-B
Wed 15:05:02 39.3010 -120.0640 54° Northeast 455 843 11,186 223 Climbing FlightAware ADS-B
Wed 15:05:38 39.3480 -119.9820 53° Northeast 458 848 11,278 76 Climbing FlightAware ADS-B
Wed 15:06:14 39.3920 -119.9040 54° Northeast 461 855 11,278  Level FlightAware ADS-B
Wed 15:06:46 39.4330 -119.8320 54° Northeast 465 861 11,278  Level FlightAware ADS-B
Wed 15:07:22 39.4780 -119.7510 54° Northeast 467 864 11,278  Level FlightAware ADS-B
Wed 15:07:56 39.5210 -119.6740 54° Northeast 466 863 11,278  Level FlightAware ADS-B
Wed 15:08:33 39.5670 -119.5920 54° Northeast 467 864 11,278  Level FlightAware ADS-B
Wed 15:09:10 39.6150 -119.5060 54° Northeast 468 867 11,278  Level FlightAware ADS-B
Wed 15:09:44 39.6570 -119.4300 54° Northeast 468 867 11,278  Level FlightAware ADS-B
Wed 15:10:19 39.7020 -119.3500 54° Northeast 469 869 11,278  Level FlightAware ADS-B
Wed 15:10:56 39.7490 -119.2650 54° Northeast 470 871 11,278  Level FlightAware ADS-B
Wed 15:11:25 39.7840 -119.2010 55° Northeast 470 871 11,278  Level FlightAware ADS-B
Wed 15:12:00 39.8300 -119.1170 54° Northeast 471 872 11,278  Level FlightAware ADS-B
Wed 15:12:33 39.8700 -119.0450 54° Northeast 473 875 11,278  Level FlightAware ADS-B
Wed 15:13:10 39.9190 -118.9550 55° Northeast 473 875 11,278  Level FlightAware ADS-B
Wed 15:13:46 39.9650 -118.8730 54° Northeast 474 877 11,278  Level FlightAware ADS-B
Wed 15:14:22 40.0100 -118.7900 55° Northeast 475 880 11,278  Level FlightAware ADS-B
Wed 15:14:56 40.0530 -118.7100 55° Northeast 476 882 11,278  Level FlightAware ADS-B
Wed 15:15:32 40.1000 -118.6240 54° Northeast 476 882 11,278  Level FlightAware ADS-B
Wed 15:16:02 40.1310 -118.5520 61° Northeast 483 895 11,278  Level FlightAware ADS-B
Wed 15:16:40 40.1630 -118.4450 69° East 487 901 11,278  Level FlightAware ADS-B
Wed 15:17:14 40.1880 -118.3530 70° East 488 904 11,278  Level FlightAware ADS-B
Wed 15:17:48 40.2130 -118.2580 71° East 490 908 11,278  Level FlightAware ADS-B
Wed 15:18:26 40.2420 -118.1520 70° East 492 911 11,278  Level FlightAware ADS-B
Wed 15:19:09 40.2710 -118.0460 70° East 492 911 11,278  Level FlightAware ADS-B
Wed 15:19:34 40.2930 -117.9650 70° East 495 917 11,278  Level FlightAware ADS-B
Wed 15:20:14 40.3200 -117.8690 70° East 495 917 11,278  Level FlightAware ADS-B
Wed 15:20:50 40.3430 -117.7820 71° East 495 917 11,278  Level FlightAware ADS-B
Wed 15:21:26 40.3670 -117.6960 70° East 495 917 11,278  Level FlightAware ADS-B
Wed 15:22:00 40.3900 -117.6140 70° East 495 917 11,278  Level FlightAware ADS-B
Wed 15:22:37 40.4150 -117.5250 70° East 495 917 11,278  Level FlightAware ADS-B
Wed 15:23:13 40.4390 -117.4390 70° East 495 917 11,278  Level FlightAware ADS-B
Wed 15:23:49 40.4630 -117.3520 70° East 495 917 11,278  Level FlightAware ADS-B
Wed 15:24:26 40.4870 -117.2630 70° East 495 917 11,278  Level FlightAware ADS-B
Wed 15:25:02 40.5110 -117.1770 70° East 495 917 11,278  Level FlightAware ADS-B
Wed 15:25:38 40.5350 -117.0900 70° East 495 917 11,278  Level FlightAware ADS-B
Wed 15:26:14 40.5590 -117.0030 70° East 495 917 11,278  Level FlightAware ADS-B
Wed 15:26:50 40.5830 -116.9170 70° East 495 917 11,278  Level FlightAware ADS-B
Wed 15:27:26 40.6070 -116.8300 70° East 495 917 11,278  Level FlightAware ADS-B
Wed 15:28:02 40.6310 -116.7430 70° East 495 917 11,278  Level FlightAware ADS-B
Wed 15:28:39 40.6560 -116.6540 70° East 495 917 11,278  Level FlightAware ADS-B
Wed 15:29:16 40.7704 -116.2770 68° East 518 959 11,278  Level FlightAware ADS-B
Wed 15:29:46 40.8039 -116.1930 62° Northeast 519 961 11,278  Level FlightAware ADS-B
Wed 15:30:16 40.8375 -116.1080 62° Northeast 520 962 11,278  Level FlightAware ADS-B
Wed 15:30:47 40.8712 -116.0220 63° Northeast 521 966 11,278  Level FlightAware ADS-B
Wed 15:31:26 40.9142 -115.9130 62° Northeast 521 966 11,278  Level FlightAware ADS-B
Wed 15:31:58 40.9499 -115.8220 63° Northeast 524 970 11,278  Level FlightAware ADS-B
Wed 15:32:51 41.0094 -115.6720 62° Northeast 526 974 11,278  Level FlightAware ADS-B
Wed 15:33:23 41.0463 -115.5790 62° Northeast 527 975 11,278  Level FlightAware ADS-B
Wed 15:34:28 41.1198 -115.3920 62° Northeast 527 975 11,278  Level FlightAware ADS-B
Wed 15:35:01 41.1565 -115.2980 63° Northeast 527 975 11,278  Level FlightAware ADS-B
Wed 15:35:18 41.1761 -115.2500 62° Northeast 527 975 11,278  Level FlightAware ADS-B
Wed 15:35:24 41.1835 -115.2330 60° Northeast 526 974 11,278  Level FlightAware ADS-B
Wed 15:35:29 41.1893 -115.2220 55° Northeast 525 972 11,278  Level FlightAware ADS-B
Wed 15:35:59 41.2330 -115.1430 54° Northeast 524 970 11,278  Level FlightAware ADS-B
Wed 15:36:17 41.2576 -115.0950 56° Northeast 526 974 11,278  Level FlightAware ADS-B
Wed 15:36:28 41.2703 -115.0650 61° Northeast 529 980 11,278  Level FlightAware ADS-B
Wed 15:36:40 41.2825 -115.0280 66° East 530 982 11,278  Level FlightAware ADS-B
Wed 15:36:54 41.2931 -114.9840 72° East 532 985 11,278  Level FlightAware ADS-B
Wed 15:37:07 41.2995 -114.9440 78° East 533 987 11,278  Level FlightAware ADS-B
Wed 15:37:15 41.3021 -114.9170 83° East 532 985 11,278  Level FlightAware ADS-B
Wed 15:37:49 41.3120 -114.8260 82° East 533 987 11,278  Level FlightAware ADS-B
Wed 15:37:57 41.3128 -114.7820 89° East 532 985 11,278  Level FlightAware ADS-B
Wed 15:38:29 41.3204 -114.6790 84° East 534 990 11,278  Level FlightAware ADS-B
Wed 15:39:03 41.3286 -114.5660 84° East 535 991 11,278  Level FlightAware ADS-B
Wed 15:39:34 41.3356 -114.4660 85° East 535 991 11,278  Level FlightAware ADS-B
Wed 15:40:04 41.3424 -114.3680 85° East 531 983 11,278  Level FlightAware ADS-B
Wed 15:40:34 41.3492 -114.2700 85° East 528 978 11,278  Level FlightAware ADS-B
Wed 15:41:04 41.3557 -114.1730 85° East 527 975 11,278  Level FlightAware ADS-B
Wed 15:41:35 41.3623 -114.0740 85° East 528 978 11,278  Level FlightAware ADS-B
Wed 15:42:05 41.3688 -113.9760 85° East 531 983 11,278  Level FlightAware ADS-B
Wed 15:42:35 41.3753 -113.8770 85° East 532 985 11,278  Level FlightAware ADS-B
Wed 15:43:06 41.3817 -113.7790 85° East 534 990 11,278  Level FlightAware ADS-B
Wed 15:43:37 41.3882 -113.6770 85° East 536 993 11,278  Level FlightAware ADS-B
Wed 15:44:07 41.3946 -113.5780 85° East 537 995 11,278  Level FlightAware ADS-B
Wed 15:44:39 41.4012 -113.4730 85° East 539 998 11,278  Level FlightAware ADS-B
Wed 15:45:09 41.4073 -113.3730 85° East 541 1003 11,278  Level FlightAware ADS-B
Wed 15:45:39 41.4134 -113.2730 85° East 540 999 11,278  Level FlightAware ADS-B
Wed 15:46:10 41.4194 -113.1740 85° East 540 999 11,278  Level FlightAware ADS-B
Wed 15:46:40 41.4253 -113.0730 86° East 540 999 11,278  Level FlightAware ADS-B
Wed 15:47:12 41.4313 -112.9690 86° East 541 1003 11,278  Level FlightAware ADS-B
Wed 15:47:49 41.4384 -112.8440 86° East 541 1003 11,278  Level FlightAware ADS-B
Wed 15:48:25 41.4450 -112.7260 86° East 540 999 11,278  Level FlightAware ADS-B
Wed 15:48:55 41.4505 -112.6240 86° East 538 996 11,278  Level FlightAware ADS-B
Wed 15:49:26 41.4559 -112.5250 86° East 540 999 11,278  Level FlightAware ADS-B
Wed 15:49:59 41.4617 -112.4160 86° East 542 1004 11,278  Level FlightAware ADS-B
Wed 15:50:29 41.4670 -112.3150 86° East 544 1007 11,278  Level FlightAware ADS-B
Wed 15:51:01 41.4725 -112.2080 86° East 547 1012 11,278  Level FlightAware ADS-B
Wed 15:51:31 41.4777 -112.1040 86° East 548 1015 11,278  Level FlightAware ADS-B
Wed 15:52:02 41.4829 -112.0000 86° East 550 1019 11,278  Level FlightAware ADS-B
Wed 15:52:33 41.4880 -111.8950 86° East 554 1027 11,278  Level FlightAware ADS-B
Wed 15:53:04 41.4930 -111.7900 86° East 555 1028 11,278  Level FlightAware ADS-B
Wed 15:53:39 41.4986 -111.6700 86° East 558 1033 11,278  Level FlightAware ADS-B
Wed 15:54:09 41.5033 -111.5680 86° East 559 1035 11,278  Level FlightAware ADS-B
Wed 15:54:41 41.5082 -111.4590 87° East 560 1036 11,278  Level FlightAware ADS-B
Wed 15:55:11 41.5127 -111.3550 87° East 562 1041 11,278  Level FlightAware ADS-B
Wed 15:55:43 41.5174 -111.2440 87° East 562 1041 11,278  Level FlightAware ADS-B
Wed 15:56:14 41.5219 -111.1370 87° East 563 1043 11,278  Level FlightAware ADS-B
Wed 15:56:44 41.5262 -111.0330 87° East 562 1041 11,278 150 Level FlightAware ADS-B
Wed 15:57:15 41.5303 -110.9290 87° East 559 1035 11,430 420 Climbing FlightAware ADS-B
Wed 15:57:45 41.5344 -110.8260 87° East 545 1009 11,704 450 Climbing FlightAware ADS-B
Wed 15:58:16 41.5383 -110.7230 87° East 534 990 11,887 152 Climbing FlightAware ADS-B
Wed 15:58:57 41.5430 -110.5890 87° East 527 975 11,887  Level FlightAware ADS-B
Wed 15:59:31 41.5470 -110.4810 87° East 524 970 11,887  Level FlightAware ADS-B
Wed 16:00:07 41.5510 -110.3650 87° East 528 978 11,887  Level FlightAware ADS-B
Wed 16:00:41 41.5550 -110.2530 87° East 527 975 11,887  Level FlightAware ADS-B
Wed 16:01:20 41.5590 -110.1440 87° East 528 978 11,887  Level FlightAware ADS-B
Wed 16:01:56 41.5630 -110.0440 87° East 528 978 11,887  Level FlightAware ADS-B
Wed 16:02:33 41.5670 -109.9420 87° East 528 978 11,887  Level FlightAware ADS-B
Wed 16:03:09 41.5710 -109.8420 87° East 528 978 11,887  Level FlightAware ADS-B
Wed 16:03:45 41.5750 -109.7420 87° East 528 978 11,887  Level FlightAware ADS-B
Wed 16:04:21 41.5790 -109.6420 87° East 528 978 11,887  Level FlightAware ADS-B
Wed 16:04:57 41.5830 -109.5420 87° East 528 978 11,887  Level FlightAware ADS-B
Wed 16:05:45 41.5880 -109.4090 87° East 528 978 11,887  Level FlightAware ADS-B
Wed 16:06:21 41.5920 -109.3100 87° East 528 978 11,887  Level FlightAware ADS-B
Wed 16:06:57 41.5960 -109.2100 87° East 528 978 11,887  Level FlightAware ADS-B
Wed 16:07:32 41.5990 -109.1130 88° East 528 978 11,887  Level FlightAware ADS-B
Wed 16:08:08 41.6030 -109.0130 87° East 528 978 11,887  Level FlightAware ADS-B
Wed 16:08:44 41.6070 -108.9130 87° East 528 978 11,887  Level FlightAware ADS-B
Wed 16:09:20 41.6110 -108.8130 87° East 528 978 11,887  Level FlightAware ADS-B
Wed 16:09:56 41.6150 -108.7130 87° East 528 978 11,887  Level FlightAware ADS-B
Wed 16:10:32 41.6190 -108.6130 87° East 528 978 11,887  Level FlightAware ADS-B
Wed 16:11:34 41.6969 -108.1328 87° East 530 982 11,887  Level Denver Center
Wed 16:12:36 41.7222 -107.9472 80° East 530 982 11,887  Level Denver Center
Wed 16:13:38 41.7483 -107.7294 81° East 532 985 11,887  Level Denver Center
Wed 16:19:52 41.8930 -106.5140 81° East 527 975 11,887  Level FlightAware ADS-B
Wed 16:20:28 41.9060 -106.3970 81° East 527 975 11,887  Level FlightAware ADS-B
Wed 16:21:04 41.9190 -106.2830 81° East 525 972 11,887  Level FlightAware ADS-B
Wed 16:21:40 41.9310 -106.1700 82° East 524 970 11,887  Level FlightAware ADS-B
Wed 16:22:16 41.9450 -106.0480 81° East 523 969 11,887  Level FlightAware ADS-B
Wed 16:22:50 41.9560 -105.9520 81° East 521 966 11,887  Level FlightAware ADS-B
Wed 16:23:26 41.9690 -105.8260 82° East 521 966 11,887  Level FlightAware ADS-B
Wed 16:24:03 41.9810 -105.7120 82° East 520 962 11,887  Level FlightAware ADS-B
Wed 16:24:42 41.9940 -105.5830 82° East 518 959 11,887  Level FlightAware ADS-B
Wed 16:25:14 42.0050 -105.4870 81° East 516 956 11,887  Level FlightAware ADS-B
Wed 16:25:49 42.0170 -105.3690 82° East 516 956 11,887  Level FlightAware ADS-B
Wed 16:26:28 42.0290 -105.2460 82° East 516 956 11,887  Level FlightAware ADS-B
Wed 16:27:00 42.0400 -105.1450 82° East 516 956 11,887  Level FlightAware ADS-B
Wed 16:27:35 42.0510 -105.0350 82° East 520 962 11,887  Level FlightAware ADS-B
Wed 16:28:10 42.0620 -104.9200 83° East 523 969 11,887  Level FlightAware ADS-B
Wed 16:28:47 42.0730 -104.8040 83° East 525 972 11,887  Level FlightAware ADS-B
Wed 16:29:17 42.0830 -104.7040 82° East 527 975 11,887  Level FlightAware ADS-B
Wed 16:29:56 42.0950 -104.5760 83° East 529 980 11,887  Level FlightAware ADS-B
Wed 16:30:31 42.1060 -104.4630 82° East 528 978 11,887  Level FlightAware ADS-B
Wed 16:31:08 42.1170 -104.3440 83° East 528 978 11,887  Level FlightAware ADS-B
Wed 16:31:41 42.1270 -104.2360 83° East 528 978 11,887  Level FlightAware ADS-B
Wed 16:32:18 42.1380 -104.1160 83° East 530 982 11,887  Level FlightAware ADS-B
Wed 16:32:48 42.1470 -104.0160 83° East 531 983 11,887  Level FlightAware ADS-B
Wed 16:33:25 42.1580 -103.8950 83° East 531 983 11,887  Level FlightAware ADS-B
Wed 16:34:02 42.1690 -103.7760 83° East 531 983 11,887  Level FlightAware ADS-B
Wed 16:34:55 42.1830 -103.6150 83° East 531 983 11,887  Level FlightAware ADS-B
Wed 16:35:31 42.1930 -103.5140 82° East 531 983 11,887  Level FlightAware ADS-B
Wed 16:36:07 42.2020 -103.4140 83° East 531 983 11,887  Level FlightAware ADS-B
Wed 16:36:43 42.2110 -103.3130 83° East 531 983 11,887  Level FlightAware ADS-B
Wed 16:37:19 42.2200 -103.2120 83° East 531 983 11,887  Level FlightAware ADS-B
Wed 16:37:56 42.2290 -103.1090 83° East 531 983 11,887  Level FlightAware ADS-B
Wed 16:38:34 42.2390 -103.0020 83° East 531 983 11,887  Level FlightAware ADS-B
Wed 16:39:10 42.2480 -102.9010 83° East 531 983 11,887  Level FlightAware ADS-B
Wed 16:39:46 42.2570 -102.8010 83° East 531 983 11,887  Level FlightAware ADS-B
Wed 16:40:22 42.2660 -102.7000 83° East 531 983 11,887  Level FlightAware ADS-B
Wed 16:40:58 42.2760 -102.5990 82° East 531 983 11,887  Level FlightAware ADS-B
Wed 16:41:34 42.2850 -102.4980 83° East 531 983 11,887  Level FlightAware ADS-B
Wed 16:42:10 42.2940 -102.3970 83° East 531 983 11,887  Level FlightAware ADS-B
Wed 16:42:46 42.3030 -102.2960 83° East 531 983 11,887  Level FlightAware ADS-B
Wed 16:43:23 42.3120 -102.1930 83° East 531 983 11,887  Level FlightAware ADS-B
Wed 16:43:59 42.3220 -102.0920 82° East 531 983 11,887  Level FlightAware ADS-B
Wed 16:44:38 42.3333 -101.7144 82° East 527 975 11,887  Level Denver Center
Wed 16:45:40 42.3492 -101.4961 84° East 525 972 11,887  Level Denver Center
Wed 16:46:42 42.3611 -101.3092 85° East 522 967 11,887  Level Denver Center
Wed 16:47:44 42.3725 -101.1231 85° East 520 962 11,887  Level Denver Center
Wed 16:53:24 42.4403 -99.9933 85° East 517 958 11,887  Level FlightAware ADS-B
Wed 16:53:56 42.4461 -99.8888 86° East 518 959 11,887  Level FlightAware ADS-B
Wed 16:54:26 42.4513 -99.7911 86° East 518 959 11,887  Level FlightAware ADS-B
Wed 16:54:57 42.4565 -99.6930 86° East 519 961 11,887  Level FlightAware ADS-B
Wed 16:55:27 42.4616 -99.5937 86° East 520 962 11,887  Level FlightAware ADS-B
Wed 16:55:58 42.4666 -99.4949 86° East 520 962 11,887  Level FlightAware ADS-B
Wed 16:56:29 42.4717 -99.3935 86° East 520 962 11,887  Level FlightAware ADS-B
Wed 16:57:31 42.4816 -99.1920 86° East 520 962 11,887  Level FlightAware ADS-B
Wed 16:58:01 42.4862 -99.0942 86° East 521 966 11,887  Level FlightAware ADS-B
Wed 16:58:32 42.4908 -98.9962 86° East 521 966 11,887  Level FlightAware ADS-B
Wed 16:59:02 42.4953 -98.8978 86° East 521 966 11,887  Level FlightAware ADS-B
Wed 17:01:20 42.5147 -98.4510 86° East 518 959 11,887  Level FlightAware ADS-B
Wed 17:01:50 42.5187 -98.3519 87° East 518 959 11,887  Level FlightAware ADS-B
Wed 17:02:21 42.5226 -98.2541 87° East 517 958 11,887  Level FlightAware ADS-B
Wed 17:02:51 42.5264 -98.1575 87° East 517 958 11,887  Level FlightAware ADS-B
Wed 17:03:22 42.5304 -98.0547 87° East 516 956 11,887  Level FlightAware ADS-B
Wed 17:03:53 42.5340 -97.9569 87° East 516 956 11,887  Level FlightAware ADS-B
Wed 17:04:23 42.5376 -97.8598 87° East 516 956 11,887  Level FlightAware ADS-B
Wed 17:04:53 42.5411 -97.7626 87° East 516 956 11,887  Level FlightAware ADS-B
Wed 17:05:24 42.5445 -97.6638 87° East 516 956 11,887  Level FlightAware ADS-B
Wed 17:05:54 42.5479 -97.5668 87° East 517 958 11,887  Level FlightAware ADS-B
Wed 17:06:25 42.5511 -97.4681 87° East 517 958 11,887  Level FlightAware ADS-B
Wed 17:06:55 42.5544 -97.3693 87° East 517 958 11,887  Level FlightAware ADS-B
Wed 17:07:25 42.5574 -97.2721 88° East 517 958 11,887  Level FlightAware ADS-B
Wed 17:07:55 42.5603 -97.1749 88° East 516 956 11,887  Level FlightAware ADS-B
Wed 17:08:26 42.5632 -97.0778 88° East 516 956 11,887  Level FlightAware ADS-B
Wed 17:08:56 42.5661 -96.9800 88° East 514 953 11,887  Level FlightAware ADS-B
Wed 17:09:26 42.5688 -96.8829 88° East 514 953 11,887  Level FlightAware ADS-B
Wed 17:09:57 42.5715 -96.7831 88° East 513 950 11,887  Level FlightAware ADS-B
Wed 17:10:27 42.5741 -96.6870 88° East 513 950 11,887  Level FlightAware ADS-B
Wed 17:10:58 42.5766 -96.5869 88° East 513 950 11,887  Level FlightAware ADS-B
Wed 17:11:29 42.5790 -96.4892 88° East 512 948 11,887  Level FlightAware ADS-B
Wed 17:11:59 42.5813 -96.3932 88° East 512 948 11,887  Level FlightAware ADS-B
Wed 17:12:30 42.5836 -96.2944 88° East 511 946 11,887  Level FlightAware ADS-B
Wed 17:13:01 42.5858 -96.1947 88° East 510 945 11,887  Level FlightAware ADS-B
Wed 17:13:32 42.5879 -96.0948 88° East 511 946 11,887  Level FlightAware ADS-B
Wed 17:14:03 42.5899 -95.9980 88° East 511 946 11,887  Level FlightAware ADS-B
Wed 17:14:34 42.5918 -95.8993 88° East 511 946 11,887  Level FlightAware ADS-B
Wed 17:15:04 42.5936 -95.8016 89° East 510 945 11,887  Level FlightAware ADS-B
Wed 17:15:34 42.5953 -95.7059 89° East 510 945 11,887  Level FlightAware ADS-B
Wed 17:16:05 42.5970 -95.6090 89° East 509 943 11,887  Level FlightAware ADS-B
Wed 17:16:35 42.5985 -95.5131 89° East 509 943 11,887  Level FlightAware ADS-B
Wed 17:17:05 42.6000 -95.4163 89° East 509 943 11,887  Level FlightAware ADS-B
Wed 17:17:35 42.6013 -95.3206 89° East 509 943 11,887  Level FlightAware ADS-B
Wed 17:18:06 42.6027 -95.2231 89° East 510 945 11,887  Level FlightAware ADS-B
Wed 17:18:37 42.6039 -95.1241 89° East 509 943 11,887  Level FlightAware ADS-B
Wed 17:19:08 42.6051 -95.0245 89° East 508 941 11,887  Level FlightAware ADS-B
Wed 17:19:38 42.6061 -94.9281 89° East 508 941 11,887  Level FlightAware ADS-B
Wed 17:20:09 42.6071 -94.8307 89° East 507 938 11,887  Level FlightAware ADS-B
Wed 17:20:40 42.6081 -94.7313 89° East 507 938 11,887  Level FlightAware ADS-B
Wed 17:21:10 42.6089 -94.6360 89° East 505 935 11,887  Level FlightAware ADS-B
Wed 17:21:41 42.6096 -94.5403 89° East 505 935 11,887  Level FlightAware ADS-B
Wed 17:22:11 42.6102 -94.4443 89° East 504 933 11,887  Level FlightAware ADS-B
Wed 17:22:43 42.6108 -94.3442 89° East 505 935 11,887  Level FlightAware ADS-B
Wed 17:23:13 42.6114 -94.2485 89° East 505 935 11,887  Level FlightAware ADS-B
Wed 17:23:44 42.6123 -94.1521 89° East 505 935 11,887  Level FlightAware ADS-B
Wed 17:24:17 42.6133 -94.0478 89° East 506 937 11,887  Level FlightAware ADS-B
Wed 17:24:48 42.6141 -93.9475 89° East 505 935 11,887  Level FlightAware ADS-B
Wed 17:25:19 42.6147 -93.8511 89° East 505 935 11,887  Level FlightAware ADS-B
Wed 17:25:25 42.6146 -93.8577 269° West 505 935 11,887  Level FlightAware ADS-B (LPVM)
Wed 17:25:59 42.6150 -93.7260 90° East 505 935 11,887  Level FlightAware ADS-B
Wed 17:26:22 42.6157 -93.6503 89° East 505 935 11,887  Level FlightAware ADS-B
Wed 17:27:11 42.6160 -93.4990 90° East 506 937 11,887  Level FlightAware ADS-B
Wed 17:27:29 42.6163 -93.4491 89° East 506 937 11,887  Level FlightAware ADS-B (LPVM)
Wed 17:28:19 42.6170 -93.2830 90° East 505 935 11,887  Level FlightAware ADS-B
Wed 17:28:55 42.6170 -93.1710 90° East 504 933 11,887  Level FlightAware ADS-B
Wed 17:29:29 42.6170 -93.0640 90° East 503 932 11,887  Level FlightAware ADS-B
Wed 17:29:35 42.6166 -93.0496 92° East 503 932 11,887  Level FlightAware ADS-B (LPVM)
Wed 17:30:05 42.6160 -92.9570 90° East 502 930 11,887  Level FlightAware ADS-B
Wed 17:30:40 42.6160 -92.8450 90° East 500 925 11,887  Level FlightAware ADS-B
Wed 17:31:17 42.6160 -92.7310 90° East 499 924 11,887  Level FlightAware ADS-B
Wed 17:31:49 42.6150 -92.6230 91° East 498 922 11,887  Level FlightAware ADS-B
Wed 17:32:23 42.6150 -92.5190 90° East 498 922 11,887  Level FlightAware ADS-B
Wed 17:32:33 42.6146 -92.4855 91° East 498 922 11,887  Level FlightAware ADS-B (LPVM)
Wed 17:33:03 42.6140 -92.3990 91° East 499 924 11,887  Level FlightAware ADS-B
Wed 17:33:05 42.6140 -92.3850 90° East 499 924 11,887  Level FlightAware ADS-B (LPVM)
Wed 17:33:40 42.6130 -92.2810 91° East 499 924 11,887  Level FlightAware ADS-B
Wed 17:33:42 42.6132 -92.2704 89° East 499 924 11,887  Level FlightAware ADS-B (LPVM)
Wed 17:34:17 42.6120 -92.1640 91° East 498 922 11,887  Level FlightAware ADS-B
Wed 17:34:52 42.6110 -92.0600 91° East 498 922 11,887  Level FlightAware ADS-B
Wed 17:35:28 42.6100 -91.9430 91° East 498 922 11,887  Level FlightAware ADS-B
Wed 17:35:59 42.6090 -91.8450 91° East 499 924 11,887  Level FlightAware ADS-B
Wed 17:36:06 42.6088 -91.8207 91° East 498 922 11,887  Level FlightAware ADS-B (LPVM)
Wed 17:36:37 42.6080 -91.7280 91° East 499 924 11,887  Level FlightAware ADS-B
Wed 17:37:13 42.6060 -91.6180 91° East 499 924 11,887  Level FlightAware ADS-B
Wed 17:37:45 42.6050 -91.5190 91° East 499 924 11,887  Level FlightAware ADS-B
Wed 17:38:11 42.6035 -91.4312 91° East 498 922 11,887  Level FlightAware ADS-B (LPVM)
Wed 17:38:46 42.6018 -91.3223 91° East 498 922 11,887  Level FlightAware ADS-B (LPVM)
Wed 17:39:19 42.6001 -91.2183 91° East 498 922 11,887  Level FlightAware ADS-B (LPVM)
Wed 17:39:59 42.5979 -91.0945 91° East 497 921 11,887  Level FlightAware ADS-B (LPVM)
Wed 17:40:41 42.5960 -90.9680 91° East 496 919 11,887  Level FlightAware ADS-B
Wed 17:41:17 42.5930 -90.8540 92° East 495 917 11,887  Level FlightAware ADS-B
Wed 17:41:52 42.5910 -90.7430 91° East 494 914 11,887  Level FlightAware ADS-B
Wed 17:42:26 42.5890 -90.6410 91° East 491 909 11,887  Level FlightAware ADS-B
Wed 17:42:51 42.5878 -90.5935 92° East 490 908 11,887  Level FlightAware ADS-B (LPVM)
Wed 17:43:34 42.5840 -90.4330 92° East 489 906 11,887  Level FlightAware ADS-B
Wed 17:44:13 42.5810 -90.3160 92° East 487 901 11,887  Level FlightAware ADS-B
Wed 17:44:50 42.5780 -90.2020 92° East 485 898 11,887  Level FlightAware ADS-B
Wed 17:45:22 42.5760 -90.1030 92° East 484 896 11,887  Level FlightAware ADS-B
Wed 17:45:57 42.5730 -89.9970 92° East 483 895 11,887  Level FlightAware ADS-B
Wed 17:46:31 42.5700 -89.8960 92° East 483 895 11,887  Level FlightAware ADS-B
Wed 17:47:04 42.5670 -89.7980 92° East 483 895 11,887  Level FlightAware ADS-B
Wed 17:47:45 42.5630 -89.6740 92° East 482 893 11,887  Level FlightAware ADS-B
Wed 17:48:17 42.5600 -89.5740 92° East 482 893 11,887  Level FlightAware ADS-B
Wed 17:48:54 42.5570 -89.4630 92° East 482 893 11,887  Level FlightAware ADS-B
Wed 17:49:29 42.5530 -89.3580 93° East 482 893 11,887  Level FlightAware ADS-B
Wed 17:50:01 42.5500 -89.2620 92° East 483 895 11,887  Level FlightAware ADS-B
Wed 17:50:37 42.5460 -89.1540 93° East 484 896 11,887  Level FlightAware ADS-B
Wed 17:51:15 42.5420 -89.0380 93° East 484 896 11,887  Level FlightAware ADS-B
Wed 17:51:46 42.5390 -88.9450 92° East 484 896 11,887  Level FlightAware ADS-B
Wed 17:52:22 42.5350 -88.8360 93° East 484 896 11,887  Level FlightAware ADS-B
Wed 17:52:57 42.5310 -88.7300 93° East 485 898 11,887  Level FlightAware ADS-B
Wed 17:53:34 42.5260 -88.6190 93° East 486 900 11,887  Level FlightAware ADS-B
Wed 17:54:06 42.5220 -88.5200 93° East 487 901 11,887  Level FlightAware ADS-B
Wed 17:54:43 42.5180 -88.4080 93° East 488 904 11,887  Level FlightAware ADS-B
Wed 17:55:20 42.5130 -88.2940 93° East 490 908 11,887  Level FlightAware ADS-B
Wed 17:55:51 42.5090 -88.2020 93° East 490 908 11,887  Level FlightAware ADS-B
Wed 17:56:28 42.5040 -88.0880 93° East 491 909 11,887  Level FlightAware ADS-B
Wed 17:57:04 42.5010 -87.9780 92° East 493 912 11,887  Level FlightAware ADS-B
Wed 17:57:35 42.5000 -87.8810 91° East 494 914 11,887  Level FlightAware ADS-B
Wed 17:58:20 42.5000 -87.7420 90° East 497 921 11,887  Level FlightAware ADS-B
Wed 17:58:55 42.4990 -87.6340 91° East 499 924 11,887  Level FlightAware ADS-B
Wed 17:59:29 42.4990 -87.5260 90° East 501 929 11,887  Level FlightAware ADS-B
Wed 18:00:04 42.4990 -87.4220 90° East 501 929 11,887  Level FlightAware ADS-B
Wed 18:00:38 42.4980 -87.3170 91° East 501 929 11,887  Level FlightAware ADS-B
Wed 18:01:14 42.4970 -87.1980 91° East 500 925 11,887  Level FlightAware ADS-B
Wed 18:01:52 42.4970 -87.0790 90° East 499 924 11,887  Level FlightAware ADS-B
Wed 18:02:22 42.4960 -86.9840 91° East 499 924 11,887  Level FlightAware ADS-B
Wed 18:03:02 42.4950 -86.8690 91° East 499 924 11,887  Level FlightAware ADS-B
Wed 18:03:36 42.4940 -86.7590 91° East 498 922 11,887  Level FlightAware ADS-B
Wed 18:04:06 42.4930 -86.6650 91° East 497 921 11,887  Level FlightAware ADS-B
Wed 18:04:47 42.4910 -86.5380 91° East 492 911 11,887  Level FlightAware ADS-B
Wed 18:05:22 42.4900 -86.4340 91° East 491 909 11,887  Level FlightAware ADS-B
Wed 18:06:02 42.4880 -86.3090 91° East 488 904 11,887  Level FlightAware ADS-B
Wed 18:06:30 42.4870 -86.2270 91° East 487 901 11,887  Level FlightAware ADS-B
Wed 18:07:06 42.4850 -86.1160 91° East 486 900 11,887  Level FlightAware ADS-B
Wed 18:07:40 42.4830 -86.0180 92° East 485 898 11,887  Level FlightAware ADS-B
Wed 18:08:18 42.4810 -85.9000 91° East 484 896 11,887  Level FlightAware ADS-B
Wed 18:08:51 42.4790 -85.7970 91° East 483 895 11,887  Level FlightAware ADS-B
Wed 18:09:26 42.4770 -85.6910 91° East 482 893 11,887  Level FlightAware ADS-B
Wed 18:10:03 42.4750 -85.5780 91° East 482 893 11,887  Level FlightAware ADS-B
Wed 18:10:38 42.4730 -85.4730 91° East 483 895 11,887  Level FlightAware ADS-B
Wed 18:11:20 42.4700 -85.3460 92° East 483 895 11,887  Level FlightAware ADS-B
Wed 18:11:55 42.4680 -85.2410 91° East 484 896 11,887  Level FlightAware ADS-B
Wed 18:12:26 42.4650 -85.1490 93° East 483 895 11,887  Level FlightAware ADS-B
Wed 18:13:03 42.4630 -85.0430 91° East 483 895 11,887  Level FlightAware ADS-B
Wed 18:13:37 42.4600 -84.9350 92° East 483 895 11,887  Level FlightAware ADS-B
Wed 18:14:13 42.4570 -84.8240 92° East 482 893 11,887  Level FlightAware ADS-B
Wed 18:14:56 42.4530 -84.6930 92° East 482 893 11,887  Level FlightAware ADS-B
Wed 18:15:29 42.4510 -84.6030 92° East 482 893 11,887  Level FlightAware ADS-B
Wed 18:16:05 42.4470 -84.4900 93° East 482 893 11,887  Level FlightAware ADS-B
Wed 18:16:41 42.4440 -84.3820 92° East 482 893 11,887  Level FlightAware ADS-B
Wed 18:17:17 42.4410 -84.2750 92° East 483 895 11,887  Level FlightAware ADS-B
Wed 18:17:50 42.4370 -84.1700 93° East 483 895 11,887  Level FlightAware ADS-B
Wed 18:18:26 42.4340 -84.0640 92° East 484 896 11,887  Level FlightAware ADS-B
Wed 18:19:00 42.4300 -83.9570 93° East 485 898 11,887  Level FlightAware ADS-B
Wed 18:19:38 42.4260 -83.8450 93° East 484 896 11,887  Level FlightAware ADS-B
Wed 18:20:10 42.4220 -83.7490 93° East 475 880 11,887  Level FlightAware ADS-B
Wed 18:20:46 42.4180 -83.6430 93° East 470 871 11,887  Level FlightAware ADS-B
Wed 18:21:22 42.4140 -83.5400 93° East 471 872 11,887  Level FlightAware ADS-B
Wed 18:21:56 42.4100 -83.4350 93° East 473 875 11,887  Level FlightAware ADS-B
Wed 18:22:32 42.4060 -83.3320 93° East 469 869 11,887  Level FlightAware ADS-B
Wed 18:23:04 42.4020 -83.2360 93° East 465 861 11,887  Level FlightAware ADS-B
Wed 18:23:42 42.3980 -83.1280 93° East 462 856 11,887  Level FlightAware ADS-B
Wed 18:24:14 42.3940 -83.0360 93° East 460 851 11,887  Level FlightAware ADS-B
Wed 18:24:48 42.3900 -82.9390 93° East 460 851 11,887  Level FlightAware ADS-B
Wed 18:25:26 42.3850 -82.8320 94° East 459 850 11,887  Level FlightAware ADS-B
Wed 18:26:02 42.3800 -82.7270 94° East 460 851 11,887  Level FlightAware ADS-B
Wed 18:26:38 42.3760 -82.6250 93° East 461 855 11,887  Level FlightAware ADS-B
Wed 18:27:10 42.3720 -82.5310 93° East 462 856 11,887  Level FlightAware ADS-B
Wed 18:27:47 42.3680 -82.4260 93° East 464 859 11,887  Level FlightAware ADS-B
Wed 18:28:20 42.3640 -82.3290 93° East 465 861 11,887  Level FlightAware ADS-B
Wed 18:28:54 42.3600 -82.2280 93° East 466 863 11,887  Level FlightAware ADS-B
Wed 18:29:32 42.3560 -82.1200 93° East 468 867 11,887  Level FlightAware ADS-B
Wed 18:30:19 42.3500 -81.9860 93° East 470 871 11,887  Level FlightAware ADS-B
Wed 18:30:56 42.3450 -81.8730 93° East 471 872 11,887  Level FlightAware ADS-B
Wed 18:31:28 42.3410 -81.7780 93° East 472 874 11,887  Level FlightAware ADS-B
Wed 18:32:03 42.3360 -81.6750 94° East 473 875 11,887  Level FlightAware ADS-B
Wed 18:32:42 42.3300 -81.5620 94° East 473 875 11,887  Level FlightAware ADS-B
Wed 18:33:14 42.3260 -81.4660 93° East 474 877 11,887  Level FlightAware ADS-B
Wed 18:33:49 42.3210 -81.3640 94° East 474 877 11,887  Level FlightAware ADS-B
Wed 18:34:26 42.3160 -81.2550 94° East 474 877 11,887  Level FlightAware ADS-B
Wed 18:34:58 42.3110 -81.1610 94° East 474 877 11,887  Level FlightAware ADS-B
Wed 18:35:34 42.3050 -81.0560 94° East 474 877 11,887  Level FlightAware ADS-B
Wed 18:36:10 42.3000 -80.9490 94° East 473 875 11,887  Level FlightAware ADS-B
Wed 18:36:46 42.2940 -80.8430 94° East 472 874 11,887  Level FlightAware ADS-B
Wed 18:37:19 42.2890 -80.7470 94° East 471 872 11,887  Level FlightAware ADS-B
Wed 18:37:56 42.2830 -80.6410 94° East 470 871 11,887  Level FlightAware ADS-B
Wed 18:38:29 42.2780 -80.5430 94° East 470 871 11,887  Level FlightAware ADS-B
Wed 18:39:03 42.2720 -80.4420 95° East 469 869 11,887  Level FlightAware ADS-B
Wed 18:39:40 42.2660 -80.3380 94° East 469 869 11,887  Level FlightAware ADS-B
Wed 18:40:12 42.2600 -80.2420 95° East 468 867 11,887  Level FlightAware ADS-B
Wed 18:40:50 42.2540 -80.1330 94° East 467 864 11,887  Level FlightAware ADS-B
Wed 18:41:24 42.2480 -80.0340 95° East 466 863 11,887  Level FlightAware ADS-B
Wed 18:42:01 42.2410 -79.9270 95° East 465 861 11,887  Level FlightAware ADS-B
Wed 18:42:33 42.2360 -79.8340 94° East 464 859 11,887  Level FlightAware ADS-B
Wed 18:43:10 42.2290 -79.7310 95° East 462 856 11,887  Level FlightAware ADS-B
Wed 18:43:45 42.2220 -79.6270 95° East 461 855 11,887  Level FlightAware ADS-B
Wed 18:44:22 42.2160 -79.5240 94° East 459 850 11,887  Level FlightAware ADS-B
Wed 18:44:54 42.2100 -79.4320 95° East 458 848 11,887  Level FlightAware ADS-B
Wed 18:45:31 42.2030 -79.3290 95° East 458 848 11,887  Level FlightAware ADS-B
Wed 18:46:06 42.1960 -79.2270 95° East 458 848 11,887  Level FlightAware ADS-B
Wed 18:46:39 42.1890 -79.1410 96° East 460 851 11,887  Level FlightAware ADS-B
Wed 18:47:23 42.1620 -79.0120 106° East 464 859 11,887  Level FlightAware ADS-B
Wed 18:47:55 42.1400 -78.9250 109° East 463 858 11,887  Level FlightAware ADS-B
Wed 18:48:33 42.1140 -78.8200 108° East 463 858 11,887  Level FlightAware ADS-B
Wed 18:49:05 42.0910 -78.7330 110° East 464 859 11,887  Level FlightAware ADS-B
Wed 18:49:41 42.0670 -78.6380 109° East 464 859 11,887  Level FlightAware ADS-B
Wed 18:50:17 42.0420 -78.5360 108° East 464 859 11,887  Level FlightAware ADS-B
Wed 18:50:50 42.0200 -78.4500 109° East 465 861 11,887  Level FlightAware ADS-B
Wed 18:51:27 41.9930 -78.3470 109° East 465 861 11,887  Level FlightAware ADS-B
Wed 18:52:03 41.9690 -78.2540 109° East 464 859 11,887  Level FlightAware ADS-B
Wed 18:52:39 41.9420 -78.1490 109° East 464 859 11,887  Level FlightAware ADS-B
Wed 18:53:11 41.9200 -78.0640 109° East 463 858 11,887  Level FlightAware ADS-B
Wed 18:53:47 41.8950 -77.9660 109° East 463 858 11,887  Level FlightAware ADS-B
Wed 18:54:23 41.8700 -77.8700 109° East 463 858 11,887  Level FlightAware ADS-B
Wed 18:54:59 41.8440 -77.7700 109° East 462 856 11,887  Level FlightAware ADS-B
Wed 18:55:31 41.8210 -77.6840 110° East 462 856 11,887  Level FlightAware ADS-B
Wed 18:56:09 41.7940 -77.5810 109° East 461 855 11,887  Level FlightAware ADS-B
Wed 18:56:41 41.7710 -77.4970 110° East 461 855 11,887  Level FlightAware ADS-B
Wed 18:57:17 41.7460 -77.4020 109° East 461 855 11,887  Level FlightAware ADS-B
Wed 18:57:53 41.7190 -77.3020 110° East 462 856 11,887  Level FlightAware ADS-B
Wed 18:58:29 41.6930 -77.2060 110° East 462 856 11,887  Level FlightAware ADS-B
Wed 18:59:01 41.6700 -77.1200 110° East 462 856 11,887  Level FlightAware ADS-B
Wed 18:59:37 41.6450 -77.0250 109° East 461 855 11,887  Level FlightAware ADS-B
Wed 19:00:09 41.6210 -76.9400 111° Southeast 461 855 11,887  Level FlightAware ADS-B
Wed 19:00:52 41.5920 -76.8320 110° East 461 855 11,887  Level FlightAware ADS-B
Wed 19:01:27 41.5660 -76.7380 110° East 461 855 11,887  Level FlightAware ADS-B
Wed 19:02:12 41.5330 -76.6160 110° East 463 858 11,887  Level FlightAware ADS-B
Wed 19:02:42 41.5120 -76.5400 110° East 463 858 11,887  Level FlightAware ADS-B
Wed 19:03:12 41.4900 -76.4600 110° East 463 858 11,887  Level FlightAware ADS-B
Wed 19:03:57 41.4540 -76.3330 111° Southeast 463 858 11,887 -134 Level FlightAware ADS-B
Wed 19:04:34 41.4270 -76.2350 110° East 466 863 11,704 -554 Descending FlightAware ADS-B
Wed 19:05:03 41.4040 -76.1520 110° East 472 874 11,278 -874 Descending FlightAware ADS-B
Wed 19:05:41 41.3750 -76.0480 110° East 479 887 10,729 -842 Descending FlightAware ADS-B
Wed 19:06:19 41.3450 -75.9430 111° Southeast 480 888 10,211 -822 Descending FlightAware ADS-B
Wed 19:06:50 41.3210 -75.8600 111° Southeast 478 885 9,784 -829 Descending FlightAware ADS-B
Wed 19:07:23 41.2950 -75.7680 111° Southeast 475 880 9,327 -902 Descending FlightAware ADS-B
Wed 19:08:03 41.2620 -75.6580 112° Southeast 476 882 8,687 -914 Descending FlightAware ADS-B
Wed 19:08:35 41.2340 -75.5720 113° Southeast 475 880 8,230 -834 Descending FlightAware ADS-B
Wed 19:09:11 41.2020 -75.4770 114° Southeast 467 864 7,742 -780 Descending FlightAware ADS-B
Wed 19:09:43 41.1750 -75.3970 114° Southeast 456 845 7,346 -593 Descending FlightAware ADS-B
Wed 19:10:22 41.1420 -75.3000 114° Southeast 450 834 7,041 -287 Descending FlightAware ADS-B
Wed 19:10:53 41.1160 -75.2230 114° Southeast 450 834 7,010 -25 Descending FlightAware ADS-B
Wed 19:11:34 41.0810 -75.1170 114° Southeast 450 834 7,010  Level FlightAware ADS-B
Wed 19:12:06 41.0530 -75.0350 114° Southeast 450 834 7,010  Level FlightAware ADS-B
Wed 19:12:42 41.0220 -74.9450 115° Southeast 450 834 7,010  Level FlightAware ADS-B
Wed 19:13:14 40.9990 -74.8640 111° Southeast 450 834 7,010 -81 Level FlightAware ADS-B
Wed 19:13:50 40.9840 -74.7680 102° East 446 826 6,919 -356 Descending FlightAware ADS-B
Wed 19:14:26 40.9740 -74.6700 98° East 431 798 6,584 -661 Descending FlightAware ADS-B
Wed 19:15:02 40.9640 -74.5790 98° East 423 784 6,126 -635 Descending FlightAware ADS-B
Wed 19:15:38 40.9540 -74.4870 98° East 419 776 5,822 -283 Descending FlightAware ADS-B
Wed 19:16:13 40.9450 -74.4030 98° East 417 772 5,791 -25 Descending FlightAware ADS-B
Wed 19:16:50 40.9310 -74.3050 101° East 400 740 5,791  Level FlightAware ADS-B
Wed 19:17:09 40.9180 -74.2680 115° Southeast 380 703 5,791  Level FlightAware ADS-B
Wed 19:17:45 40.8820 -74.2040 127° Southeast 340 629 5,791 -178 Level FlightAware ADS-B
Wed 19:18:21 40.8474 -74.1458 128° Southeast 326 604 5,578 -383 Descending FlightAware ADS-B
Wed 19:18:47 40.8234 -74.1061 129° Southeast 323 599 5,395 -430 Descending FlightAware ADS-B
Wed 19:18:55 40.8134 -74.0949 140° Southeast 322 597 5,334 -439 Descending FlightAware ADS-B
Wed 19:19:12 40.7909 -74.0814 156° South 320 592 5,212 -492 Descending FlightAware ADS-B
Wed 19:19:47 40.7411 -74.0670 168° South 320 592 4,907 -631 Descending FlightAware ADS-B
Wed 19:20:36 40.6709 -74.0471 168° South 311 576 4,328 -644 Descending FlightAware ADS-B
Wed 19:21:15 40.6170 -74.0310 167° South 310 575 3,962 -386 Descending FlightAware ADS-B
Wed 19:21:47 40.5730 -74.0180 167° South 310 575 3,871 -81 Descending FlightAware ADS-B
Wed 19:22:23 40.5220 -74.0020 167° South 306 566 3,871  Level FlightAware ADS-B
Wed 19:22:59 40.4730 -73.9880 168° South 304 563 3,871 -76 Level FlightAware ADS-B
Wed 19:23:35 40.4250 -73.9680 162° South 301 557 3,780 -269 Descending FlightAware ADS-B
Wed 19:24:07 40.3840 -73.9460 158° South 304 563 3,566 -430 Descending FlightAware ADS-B
Wed 19:24:43 40.3370 -73.9210 158° South 303 562 3,292 -254 Descending FlightAware ADS-B
Wed 19:25:19 40.2890 -73.8960 158° South 304 563 3,261 -152 Descending FlightAware ADS-B
Wed 19:25:31 40.2740 -73.8860 153° Southeast 300 555 3,170 -457 Descending FlightAware ADS-B
Wed 19:25:39 40.2670 -73.8780 139° Southeast 296 549 3,109 -457 Descending FlightAware ADS-B
Wed 19:25:47 40.2590 -73.8660 131° Southeast 294 544 3,048 -457 Descending FlightAware ADS-B
Wed 19:25:59 40.2500 -73.8490 125° Southeast 293 542 2,957 -436 Descending FlightAware ADS-B
Wed 19:26:08 40.2460 -73.8340 109° East 292 541 2,896 -366 Descending FlightAware ADS-B
Wed 19:26:24 40.2380 -73.8080 112° Southeast 290 538 2,804 -356 Descending FlightAware ADS-B
Wed 19:26:44 40.2300 -73.7750 108° East 287 531 2,682 -366 Descending FlightAware ADS-B
Wed 19:27:04 40.2220 -73.7420 108° East 284 526 2,560 -388 Descending FlightAware ADS-B
Wed 19:27:17 40.2190 -73.7200 100° East 282 523 2,469 -418 Descending FlightAware ADS-B
Wed 19:27:39 40.2290 -73.6860 69° East 276 512 2,316 -366 Descending FlightAware ADS-B
Wed 19:27:47 40.2350 -73.6780 46° Northeast 277 513 2,286 -457 Descending FlightAware ADS-B
Wed 19:27:51 40.2400 -73.6730 37° Northeast 276 512 2,225 -441 Descending FlightAware ADS-B
Wed 19:28:16 40.2630 -73.6510 36° Northeast 275 509 2,073 -416 Descending FlightAware ADS-B
Wed 19:28:35 40.2860 -73.6300 35° Northeast 275 509 1,920 -445 Descending FlightAware ADS-B
Wed 19:28:53 40.3030 -73.6130 37° Northeast 275 509 1,798 -366 Descending FlightAware ADS-B
Wed 19:29:10 40.3210 -73.5970 34° Northeast 274 507 1,707 -397 Descending FlightAware ADS-B
Wed 19:29:39 40.3540 -73.5740 28° Northeast 274 507 1,494 -411 Descending FlightAware ADS-B
Wed 19:29:59 40.3770 -73.5590 26° Northeast 273 505 1,372 -356 Descending FlightAware ADS-B
Wed 19:30:15 40.3940 -73.5480 26° Northeast 271 502 1,280 -376 Descending FlightAware ADS-B
Wed 19:30:33 40.4160 -73.5340 26° Northeast 269 499 1,158 -305 Descending FlightAware ADS-B
Wed 19:30:45 40.4270 -73.5270 26° Northeast 270 501 1,128 -59 Descending FlightAware ADS-B
Wed 19:31:04 40.4470 -73.5130 28° Northeast 271 502 1,128  Level FlightAware ADS-B
Wed 19:31:30 40.4760 -73.4950 25° Northeast 270 501 1,128  Level FlightAware ADS-B
Wed 19:31:50 40.5020 -73.4770 28° Northeast 270 501 1,128  Level FlightAware ADS-B
Wed 19:32:11 40.5250 -73.4620 26° Northeast 269 499 1,128  Level FlightAware ADS-B
Wed 19:32:31 40.5480 -73.4470 26° Northeast 260 481 1,128  Level FlightAware ADS-B
Wed 19:32:51 40.5690 -73.4340 25° Northeast 243 451 1,128  Level FlightAware ADS-B
Wed 19:33:09 40.5860 -73.4240 24° Northeast 229 425 1,128 70 Level FlightAware ADS-B
Wed 19:33:17 40.5950 -73.4230 North 227 420 1,158  Climbing FlightAware ADS-B
Wed 19:33:45 40.6230 -73.4250 357° North 228 422 1,128 -38 Descending FlightAware ADS-B
Wed 19:34:05 40.6450 -73.4270 356° North 227 420 1,128  Level FlightAware ADS-B
Wed 19:34:13 40.6530 -73.4300 344° North 224 415 1,128 -152 Level FlightAware ADS-B
Wed 19:34:17 40.6570 -73.4330 330° Northwest 222 410 1,097 -305 Descending FlightAware ADS-B
Wed 19:34:25 40.6630 -73.4400 318° Northwest 218 404 1,067 -203 Descending FlightAware ADS-B
Wed 19:34:44 40.6770 -73.4560 319° Northwest 218 404 1,006 -254 Descending FlightAware ADS-B
Wed 19:35:01 40.6900 -73.4720 317° Northwest 217 402 914 -247 Descending FlightAware ADS-B
Wed 19:35:21 40.7050 -73.4890 319° Northwest 214 396 853 -172 Descending FlightAware ADS-B
Wed 19:35:33 40.7140 -73.5000 317° Northwest 213 394 823 -54 Descending FlightAware ADS-B
Wed 19:35:55 40.7290 -73.5190 316° Northwest 217 402 823  Level FlightAware ADS-B
Wed 19:36:17 40.7460 -73.5390 318° Northwest 215 398 823 -105 Level FlightAware ADS-B
Wed 19:36:30 40.7550 -73.5500 317° Northwest 213 394 762 -376 Descending FlightAware ADS-B
Wed 19:36:51 40.7700 -73.5680 318° Northwest 211 391 610 -418 Descending FlightAware ADS-B
Wed 19:37:05 40.7810 -73.5810 318° Northwest 206 381 518 -157 Descending FlightAware ADS-B
Wed 19:37:26 40.7940 -73.5960 319° Northwest 173 320 518 68 Level FlightAware ADS-B
Wed 19:37:32 40.7970 -73.6000 315° West 166 307 549 141 Climbing FlightAware ADS-B
Wed 19:37:39 40.7990 -73.6070 291° West 160 296 549  Level FlightAware ADS-B
Wed 19:37:43 40.7990 -73.6100 270° West 157 291 549 -61 Level FlightAware ADS-B
Wed 19:38:09 40.7930 -73.6340 252° West 156 290 518 -57 Descending FlightAware ADS-B
Wed 19:38:15 40.7900 -73.6370 217° Southwest 156 290 518  Level FlightAware ADS-B
Wed 19:38:38 40.7770 -73.6520 221° Southwest 156 290 518  Level FlightAware ADS-B
Wed 19:38:57 40.7650 -73.6620 212° Southwest 157 291 518  Level FlightAware ADS-B
Wed 19:39:18 40.7530 -73.6710 210° Southwest 156 290 518  Level FlightAware ADS-B
Wed 19:39:41 40.7370 -73.6830 210° Southwest 156 290 518  Level FlightAware ADS-B
Wed 19:39:53 40.7300 -73.6880 208° Southwest 158 293 518 -166 Level FlightAware ADS-B
Wed 19:40:14 40.7170 -73.6990 213° Southwest 153 283 427 -247 Descending FlightAware ADS-B
Wed 19:40:30 40.7090 -73.7050 210° Southwest 143 266 366 -209 Descending FlightAware ADS-B
Wed 19:40:49 40.6970 -73.7140 210° Southwest 126 233 305 -222 Descending FlightAware ADS-B
Wed 19:41:03 40.6910 -73.7190 212° Southwest 120 222 244 -198 Descending FlightAware ADS-B
Wed 19:41:26 40.6800 -73.7280 212° Southwest 119 220 183 -166 Descending FlightAware ADS-B
Wed 19:41:47 40.6700 -73.7350 208° Southwest 120 222 122 -223 Descending FlightAware ADS-B
Wed 19:42:07 40.6610 -73.7430 214° Southwest 120 222 30 -274 Descending FlightAware ADS-B
Wed 19:42:19 40.6550 -73.7470 207° Southwest 118 219 -500 Descending FlightAware ADS-B
Wed 19:42:43 40.6430 -73.7560 210° Southwest 118 219  Level FlightAware ADS-B
Wed 19:43:04 40.6350 -73.7630 214° Southwest 80 148  Level FlightAware ADS-B

Login

Don't have an account? Register now (free) for customized features, flight alerts, and more!